JA4041 RJOY-RJBE

Flight info

Callsign JA4041
Flight time 0h 13m
Altitude 1500
Route /C172
Aircraft C172/L-G/C

Departure

Time 2026-05-05 07:32
Airport Yao Airport (RJOY)

Arrival

Time 2026-05-05 07:46
Airport Kobe Airport (RJBE)
Time Latitude Longitude Altitude Speed Heading
2026-05-05 07:21 34.59743 135.59588 40 ft 0 kts 87°
2026-05-05 07:26 34.59741 135.59601 40 ft 6 kts 126°
2026-05-05 07:26 34.59684 135.59634 41 ft 13 kts 91°
2026-05-05 07:27 34.59687 135.59774 41 ft 20 kts 87°
2026-05-05 07:27 34.59699 135.59970 41 ft 24 kts 85°
2026-05-05 07:27 34.59709 135.60143 40 ft 18 kts 83°
2026-05-05 07:27 34.59684 135.60212 38 ft 0 kts 133°
2026-05-05 07:30 34.59673 135.60224 38 ft 3 kts 137°
2026-05-05 07:30 34.59636 135.60362 38 ft 15 kts 97°
2026-05-05 07:30 34.59649 135.60487 39 ft 14 kts 70°
2026-05-05 07:31 34.59631 135.60558 39 ft 11 kts 264°
2026-05-05 07:31 34.59636 135.60485 39 ft 0 kts 266°
2026-05-05 07:31 34.59634 135.60452 39 ft 15 kts 268°
2026-05-05 07:31 34.59617 135.60115 40 ft 63 kts 268°
2026-05-05 07:32 34.59614 135.59536 193 ft 71 kts 270°
2026-05-05 07:32 34.59622 135.58914 369 ft 73 kts 272°
2026-05-05 07:32 34.59610 135.58290 548 ft 75 kts 282°
2026-05-05 07:32 34.59756 135.57669 715 ft 78 kts 282°
2026-05-05 07:33 34.59893 135.57049 909 ft 75 kts 291°
2026-05-05 07:33 34.60287 135.56587 1063 ft 84 kts 325°
2026-05-05 07:33 34.60811 135.56212 1077 ft 97 kts 328°
2026-05-05 07:33 34.61444 135.55764 1025 ft 104 kts 328°
2026-05-05 07:34 34.62109 135.55316 1006 ft 110 kts 329°
2026-05-05 07:34 34.62789 135.54862 1034 ft 114 kts 328°
2026-05-05 07:34 34.63458 135.54385 1054 ft 115 kts 331°
2026-05-05 07:34 34.64207 135.54071 1090 ft 116 kts 350°
2026-05-05 07:35 34.65007 135.53911 1052 ft 120 kts 353°
2026-05-05 07:35 34.65858 135.53871 1041 ft 121 kts 355°
2026-05-05 07:35 34.66674 135.53768 1117 ft 114 kts 349°
2026-05-05 07:35 34.67467 135.53646 1071 ft 120 kts 356°
2026-05-05 07:36 34.68303 135.53564 1043 ft 123 kts 351°
2026-05-05 07:36 34.69157 135.53373 955 ft 125 kts 336°
2026-05-05 07:36 34.69817 135.52741 931 ft 120 kts 300°
2026-05-05 07:36 34.70186 135.51881 978 ft 112 kts 296°
2026-05-05 07:37 34.70551 135.51021 898 ft 114 kts 290°
2026-05-05 07:37 34.70696 135.50116 886 ft 110 kts 273°
2026-05-05 07:37 34.70746 135.49221 927 ft 106 kts 270°
2026-05-05 07:37 34.70711 135.48340 1015 ft 104 kts 261°
2026-05-05 07:38 34.70598 135.47466 1016 ft 105 kts 257°
2026-05-05 07:38 34.70424 135.46590 959 ft 110 kts 252°
2026-05-05 07:38 34.70151 135.45742 951 ft 107 kts 244°
2026-05-05 07:38 34.69830 135.44933 1043 ft 102 kts 241°
2026-05-05 07:39 34.69443 135.44187 1098 ft 106 kts 239°
2026-05-05 07:39 34.69084 135.43404 1119 ft 107 kts 242°
2026-05-05 07:39 34.68742 135.42582 1108 ft 111 kts 243°
2026-05-05 07:39 34.68404 135.41745 1109 ft 109 kts 246°
2026-05-05 07:40 34.68105 135.40889 1068 ft 112 kts 246°
2026-05-05 07:40 34.67776 135.40048 1086 ft 109 kts 247°
2026-05-05 07:40 34.67508 135.39190 1096 ft 109 kts 250°
2026-05-05 07:40 34.67237 135.38363 1153 ft 105 kts 245°
2026-05-05 07:41 34.67203 135.37493 1171 ft 109 kts 287°
2026-05-05 07:41 34.67251 135.36604 1182 ft 106 kts 252°
2026-05-05 07:41 34.67054 135.35742 1180 ft 106 kts 252°
2026-05-05 07:41 34.66835 135.34886 1181 ft 106 kts 250°
2026-05-05 07:42 34.66604 135.34030 1186 ft 108 kts 249°
2026-05-05 07:42 34.66362 135.33162 1183 ft 108 kts 249°
2026-05-05 07:42 34.66120 135.32305 1186 ft 110 kts 250°
2026-05-05 07:42 34.65869 135.31423 1196 ft 111 kts 249°
2026-05-05 07:43 34.65506 135.30621 1110 ft 108 kts 240°
2026-05-05 07:43 34.65132 135.29864 1101 ft 103 kts 232°
2026-05-05 07:43 34.64687 135.29174 1007 ft 105 kts 232°
2026-05-05 07:43 34.64233 135.28452 864 ft 108 kts 232°
2026-05-05 07:44 34.63790 135.27715 672 ft 109 kts 240°
2026-05-05 07:44 34.63617 135.26867 572 ft 95 kts 261°
2026-05-05 07:44 34.63600 135.26146 474 ft 79 kts 264°
2026-05-05 07:44 34.63543 135.25495 402 ft 78 kts 263°
2026-05-05 07:45 34.63467 135.24850 319 ft 77 kts 260°
2026-05-05 07:45 34.63416 135.24194 176 ft 78 kts 263°
2026-05-05 07:45 34.63365 135.23567 70 ft 72 kts 261°
2026-05-05 07:45 34.63315 135.23013 28 ft 56 kts 258°
2026-05-05 07:46 34.63281 135.22650 31 ft 31 kts 263°
2026-05-05 07:46 34.63269 135.22375 30 ft 34 kts 266°
2026-05-05 07:46 34.63285 135.22118 29 ft 27 kts 337°
2026-05-05 07:46 34.63421 135.22176 30 ft 22 kts 87°
2026-05-05 07:47 34.63433 135.22356 30 ft 22 kts 84°
2026-05-05 07:47 34.63449 135.22555 30 ft 26 kts 85°
2026-05-05 07:47 34.63468 135.22784 30 ft 29 kts 85°
2026-05-05 07:47 34.63489 135.23036 30 ft 31 kts 88°
2026-05-05 07:48 34.63559 135.23176 30 ft 17 kts 47°
2026-05-05 07:48 34.63602 135.23230 30 ft 7 kts 339°
2026-05-05 07:48 34.63609 135.23228 30 ft 0 kts 346°